sensor_id;sensor_type;location;lat;lon;timestamp;temperature;humidity
3542;DHT22;1785;47.388;8.538;2024-03-23T00:54:05;14.80;99.90
3542;DHT22;1785;47.388;8.538;2024-03-23T00:56:31;14.80;99.90
3542;DHT22;1785;47.388;8.538;2024-03-23T00:58:57;14.70;99.90
3542;DHT22;1785;47.388;8.538;2024-03-23T01:01:23;15.00;99.90
3542;DHT22;1785;47.388;8.538;2024-03-23T01:03:49;15.20;99.90
3542;DHT22;1785;47.388;8.538;2024-03-23T01:06:15;15.40;99.90
3542;DHT22;1785;47.388;8.538;2024-03-23T01:08:42;15.50;99.90
3542;DHT22;1785;47.388;8.538;2024-03-23T01:11:08;15.60;99.90
3542;DHT22;1785;47.388;8.538;2024-03-23T01:13:34;15.60;99.90
3542;DHT22;1785;47.388;8.538;2024-03-23T01:16:00;15.50;99.90
3542;DHT22;1785;47.388;8.538;2024-03-23T01:18:26;15.50;99.90
3542;DHT22;1785;47.388;8.538;2024-03-23T01:20:52;15.40;99.90
3542;DHT22;1785;47.388;8.538;2024-03-23T01:23:18;15.50;99.90
3542;DHT22;1785;47.388;8.538;2024-03-23T01:25:51;15.50;99.90
3542;DHT22;1785;47.388;8.538;2024-03-23T01:28:17;15.60;99.90
3542;DHT22;1785;47.388;8.538;2024-03-23T01:30:43;15.60;99.90
3542;DHT22;1785;47.388;8.538;2024-03-23T01:33:09;15.60;99.90
3542;DHT22;1785;47.388;8.538;2024-03-23T01:35:35;15.70;99.90
3542;DHT22;1785;47.388;8.538;2024-03-23T01:38:01;15.60;99.90
3542;DHT22;1785;47.388;8.538;2024-03-23T01:40:27;15.50;99.90
3542;DHT22;1785;47.388;8.538;2024-03-23T01:42:57;15.20;99.90
3542;DHT22;1785;47.388;8.538;2024-03-23T01:45:24;15.10;99.90
3542;DHT22;1785;47.388;8.538;2024-03-23T01:47:51;15.20;99.90
3542;DHT22;1785;47.388;8.538;2024-03-23T01:50:18;15.60;99.90
3542;DHT22;1785;47.388;8.538;2024-03-23T01:52:44;15.70;99.90
3542;DHT22;1785;47.388;8.538;2024-03-23T01:55:11;15.80;99.90
3542;DHT22;1785;47.388;8.538;2024-03-23T01:57:37;15.60;99.90
3542;DHT22;1785;47.388;8.538;2024-03-23T02:00:06;15.80;99.90
3542;DHT22;1785;47.388;8.538;2024-03-23T02:02:32;15.70;99.90
3542;DHT22;1785;47.388;8.538;2024-03-23T02:04:58;15.90;99.90
3542;DHT22;1785;47.388;8.538;2024-03-23T02:07:24;16.00;99.90
3542;DHT22;1785;47.388;8.538;2024-03-23T02:09:50;15.80;99.90
3542;DHT22;1785;47.388;8.538;2024-03-23T02:12:17;15.90;99.90
3542;DHT22;1785;47.388;8.538;2024-03-23T02:14:43;15.90;99.90
3542;DHT22;1785;47.388;8.538;2024-03-23T02:17:10;16.10;99.90
3542;DHT22;1785;47.388;8.538;2024-03-23T02:19:37;16.10;99.90
3542;DHT22;1785;47.388;8.538;2024-03-23T02:22:03;16.30;99.90
3542;DHT22;1785;47.388;8.538;2024-03-23T02:24:30;16.40;99.90
3542;DHT22;1785;47.388;8.538;2024-03-23T02:26:56;16.30;99.90
3542;DHT22;1785;47.388;8.538;2024-03-23T02:29:22;16.00;99.90
3542;DHT22;1785;47.388;8.538;2024-03-23T02:31:48;16.10;99.90
3542;DHT22;1785;47.388;8.538;2024-03-23T02:34:14;16.00;99.90
3542;DHT22;1785;47.388;8.538;2024-03-23T02:36:40;15.90;99.90
3542;DHT22;1785;47.388;8.538;2024-03-23T02:39:06;15.80;99.90
3542;DHT22;1785;47.388;8.538;2024-03-23T02:41:33;15.60;99.90
3542;DHT22;1785;47.388;8.538;2024-03-23T02:43:59;15.60;99.90
3542;DHT22;1785;47.388;8.538;2024-03-23T02:46:25;15.50;99.90
3542;DHT22;1785;47.388;8.538;2024-03-23T02:48:51;15.60;99.90
3542;DHT22;1785;47.388;8.538;2024-03-23T02:51:17;15.70;99.90
3542;DHT22;1785;47.388;8.538;2024-03-23T02:53:43;15.60;99.90
3542;DHT22;1785;47.388;8.538;2024-03-23T02:56:08;15.30;99.90
3542;DHT22;1785;47.388;8.538;2024-03-23T02:58:35;15.10;99.90
3542;DHT22;1785;47.388;8.538;2024-03-23T03:01:01;15.20;99.90
3542;DHT22;1785;47.388;8.538;2024-03-23T03:03:27;15.10;99.90
3542;DHT22;1785;47.388;8.538;2024-03-23T03:05:55;14.00;99.90
3542;DHT22;1785;47.388;8.538;2024-03-23T03:08:21;13.70;99.90
3542;DHT22;1785;47.388;8.538;2024-03-23T03:10:47;13.80;99.90
3542;DHT22;1785;47.388;8.538;2024-03-23T03:13:13;14.00;99.90
3542;DHT22;1785;47.388;8.538;2024-03-23T03:15:40;14.10;99.90
3542;DHT22;1785;47.388;8.538;2024-03-23T03:18:06;13.90;99.90
3542;DHT22;1785;47.388;8.538;2024-03-23T03:20:33;13.90;99.90
3542;DHT22;1785;47.388;8.538;2024-03-23T03:22:59;14.10;99.90
3542;DHT22;1785;47.388;8.538;2024-03-23T03:25:25;14.30;99.90
3542;DHT22;1785;47.388;8.538;2024-03-23T03:27:52;14.40;99.90
3542;DHT22;1785;47.388;8.538;2024-03-23T03:30:18;14.50;99.90
3542;DHT22;1785;47.388;8.538;2024-03-23T03:32:44;14.40;99.90
3542;DHT22;1785;47.388;8.538;2024-03-23T03:35:10;14.40;99.90
3542;DHT22;1785;47.388;8.538;2024-03-23T03:37:36;14.60;99.90
3542;DHT22;1785;47.388;8.538;2024-03-23T03:40:03;14.70;99.90
3542;DHT22;1785;47.388;8.538;2024-03-23T03:42:29;14.70;99.90
3542;DHT22;1785;47.388;8.538;2024-03-23T03:44:55;14.80;99.90
3542;DHT22;1785;47.388;8.538;2024-03-23T03:47:21;14.90;99.90
3542;DHT22;1785;47.388;8.538;2024-03-23T03:49:48;14.80;99.90
3542;DHT22;1785;47.388;8.538;2024-03-23T03:52:14;14.80;99.90
3542;DHT22;1785;47.388;8.538;2024-03-23T03:54:40;15.00;99.90
3542;DHT22;1785;47.388;8.538;2024-03-23T03:57:06;15.30;99.90
3542;DHT22;1785;47.388;8.538;2024-03-23T03:59:32;15.40;99.90
3542;DHT22;1785;47.388;8.538;2024-03-23T04:01:57;15.20;99.90
3542;DHT22;1785;47.388;8.538;2024-03-23T04:04:24;15.30;99.90
3542;DHT22;1785;47.388;8.538;2024-03-23T04:06:50;15.40;99.90
3542;DHT22;1785;47.388;8.538;2024-03-23T04:09:23;15.60;99.90
3542;DHT22;1785;47.388;8.538;2024-03-23T04:11:49;15.30;99.90
3542;DHT22;1785;47.388;8.538;2024-03-23T04:14:15;15.30;99.90
3542;DHT22;1785;47.388;8.538;2024-03-23T04:16:41;15.40;99.90
3542;DHT22;1785;47.388;8.538;2024-03-23T04:19:07;15.40;99.90
3542;DHT22;1785;47.388;8.538;2024-03-23T04:21:33;15.20;99.90
3542;DHT22;1785;47.388;8.538;2024-03-23T04:24:00;15.30;99.90
3542;DHT22;1785;47.388;8.538;2024-03-23T04:26:26;15.10;99.90
3542;DHT22;1785;47.388;8.538;2024-03-23T04:28:53;15.40;99.90
3542;DHT22;1785;47.388;8.538;2024-03-23T04:31:19;15.50;99.90
3542;DHT22;1785;47.388;8.538;2024-03-23T04:33:45;15.60;99.90
3542;DHT22;1785;47.388;8.538;2024-03-23T04:36:11;15.80;99.90
3542;DHT22;1785;47.388;8.538;2024-03-23T04:38:37;15.50;99.90
3542;DHT22;1785;47.388;8.538;2024-03-23T04:41:04;15.20;99.90
3542;DHT22;1785;47.388;8.538;2024-03-23T04:43:30;15.10;99.90
3542;DHT22;1785;47.388;8.538;2024-03-23T04:45:56;15.00;99.90
3542;DHT22;1785;47.388;8.538;2024-03-23T04:48:23;15.00;99.90
3542;DHT22;1785;47.388;8.538;2024-03-23T04:50:49;15.00;99.90
3542;DHT22;1785;47.388;8.538;2024-03-23T04:53:15;15.00;99.90
3542;DHT22;1785;47.388;8.538;2024-03-23T04:55:41;15.40;99.90
3542;DHT22;1785;47.388;8.538;2024-03-23T04:58:08;15.40;99.90
3542;DHT22;1785;47.388;8.538;2024-03-23T05:00:34;15.80;99.90
3542;DHT22;1785;47.388;8.538;2024-03-23T05:03:00;15.60;99.90
3542;DHT22;1785;47.388;8.538;2024-03-23T05:05:26;15.30;99.90
3542;DHT22;1785;47.388;8.538;2024-03-23T05:07:52;15.20;99.90
3542;DHT22;1785;47.388;8.538;2024-03-23T05:10:18;15.10;99.90
3542;DHT22;1785;47.388;8.538;2024-03-23T05:12:45;15.00;99.90
3542;DHT22;1785;47.388;8.538;2024-03-23T05:15:11;15.10;99.90
3542;DHT22;1785;47.388;8.538;2024-03-23T05:17:38;14.90;99.90
3542;DHT22;1785;47.388;8.538;2024-03-23T05:20:04;15.00;99.90
3542;DHT22;1785;47.388;8.538;2024-03-23T05:22:35;15.00;99.90
3542;DHT22;1785;47.388;8.538;2024-03-23T05:25:01;15.10;99.90
3542;DHT22;1785;47.388;8.538;2024-03-23T05:27:29;15.30;99.90
3542;DHT22;1785;47.388;8.538;2024-03-23T05:29:55;15.10;99.90
3542;DHT22;1785;47.388;8.538;2024-03-23T05:32:22;15.10;99.90
3542;DHT22;1785;47.388;8.538;2024-03-23T05:34:48;14.90;99.90
3542;DHT22;1785;47.388;8.538;2024-03-23T05:37:15;14.40;99.90
3542;DHT22;1785;47.388;8.538;2024-03-23T05:39:41;14.20;99.90
3542;DHT22;1785;47.388;8.538;2024-03-23T05:42:07;14.00;99.90
3542;DHT22;1785;47.388;8.538;2024-03-23T05:44:33;13.80;99.90
3542;DHT22;1785;47.388;8.538;2024-03-23T05:47:00;13.40;99.90
3542;DHT22;1785;47.388;8.538;2024-03-23T05:49:26;13.70;99.90
3542;DHT22;1785;47.388;8.538;2024-03-23T05:51:52;13.90;99.90
3542;DHT22;1785;47.388;8.538;2024-03-23T05:54:18;14.30;99.90
3542;DHT22;1785;47.388;8.538;2024-03-23T05:56:44;14.30;99.90
3542;DHT22;1785;47.388;8.538;2024-03-23T05:59:10;14.40;99.90
3542;DHT22;1785;47.388;8.538;2024-03-23T06:01:36;14.30;99.90
3542;DHT22;1785;47.388;8.538;2024-03-23T06:04:03;14.30;99.90
3542;DHT22;1785;47.388;8.538;2024-03-23T06:06:30;14.10;99.90
3542;DHT22;1785;47.388;8.538;2024-03-23T06:08:55;14.00;99.90
3542;DHT22;1785;47.388;8.538;2024-03-23T06:11:22;14.10;99.90
3542;DHT22;1785;47.388;8.538;2024-03-23T06:13:48;14.10;99.90
3542;DHT22;1785;47.388;8.538;2024-03-23T06:16:14;13.60;99.90
3542;DHT22;1785;47.388;8.538;2024-03-23T06:18:40;13.00;99.90
3542;DHT22;1785;47.388;8.538;2024-03-23T06:21:13;12.80;99.90
3542;DHT22;1785;47.388;8.538;2024-03-23T06:23:40;12.60;99.90
3542;DHT22;1785;47.388;8.538;2024-03-23T06:26:06;12.50;99.90
3542;DHT22;1785;47.388;8.538;2024-03-23T06:28:32;12.10;99.90
3542;DHT22;1785;47.388;8.538;2024-03-23T06:30:58;12.10;99.90
3542;DHT22;1785;47.388;8.538;2024-03-23T06:33:24;11.80;99.90
3542;DHT22;1785;47.388;8.538;2024-03-23T06:35:50;11.80;99.90
3542;DHT22;1785;47.388;8.538;2024-03-23T06:38:17;11.70;99.90
3542;DHT22;1785;47.388;8.538;2024-03-23T06:40:44;11.60;99.90
3542;DHT22;1785;47.388;8.538;2024-03-23T06:43:13;12.00;99.90
3542;DHT22;1785;47.388;8.538;2024-03-23T06:45:39;12.20;99.90
3542;DHT22;1785;47.388;8.538;2024-03-23T06:48:05;12.20;99.90
3542;DHT22;1785;47.388;8.538;2024-03-23T06:50:33;12.20;99.90
3542;DHT22;1785;47.388;8.538;2024-03-23T06:52:59;12.30;99.90
3542;DHT22;1785;47.388;8.538;2024-03-23T06:55:27;12.20;99.90
3542;DHT22;1785;47.388;8.538;2024-03-23T06:57:53;12.00;99.90
3542;DHT22;1785;47.388;8.538;2024-03-23T07:00:20;12.10;99.90
3542;DHT22;1785;47.388;8.538;2024-03-23T07:02:46;12.20;99.90
3542;DHT22;1785;47.388;8.538;2024-03-23T07:05:12;12.00;99.90
3542;DHT22;1785;47.388;8.538;2024-03-23T07:07:38;12.10;99.90
3542;DHT22;1785;47.388;8.538;2024-03-23T07:10:06;12.10;99.90
3542;DHT22;1785;47.388;8.538;2024-03-23T07:12:31;12.20;99.90
3542;DHT22;1785;47.388;8.538;2024-03-23T07:14:58;12.40;99.90
3542;DHT22;1785;47.388;8.538;2024-03-23T07:17:24;12.30;99.90
3542;DHT22;1785;47.388;8.538;2024-03-23T07:19:50;12.10;99.90
3542;DHT22;1785;47.388;8.538;2024-03-23T07:22:16;12.00;99.90
3542;DHT22;1785;47.388;8.538;2024-03-23T07:24:43;12.00;99.90
3542;DHT22;1785;47.388;8.538;2024-03-23T07:27:09;11.80;99.90
3542;DHT22;1785;47.388;8.538;2024-03-23T07:29:36;11.70;99.90
3542;DHT22;1785;47.388;8.538;2024-03-23T07:32:02;11.80;99.90
3542;DHT22;1785;47.388;8.538;2024-03-23T07:34:28;11.80;99.90
3542;DHT22;1785;47.388;8.538;2024-03-23T07:36:54;11.70;99.90
3542;DHT22;1785;47.388;8.538;2024-03-23T07:39:20;11.80;99.90
3542;DHT22;1785;47.388;8.538;2024-03-23T07:41:46;11.60;99.90
3542;DHT22;1785;47.388;8.538;2024-03-23T07:44:12;11.80;99.90
3542;DHT22;1785;47.388;8.538;2024-03-23T07:46:38;11.90;99.90
3542;DHT22;1785;47.388;8.538;2024-03-23T07:49:05;12.00;99.90
3542;DHT22;1785;47.388;8.538;2024-03-23T07:51:31;12.30;99.90
3542;DHT22;1785;47.388;8.538;2024-03-23T07:53:58;12.10;99.90
3542;DHT22;1785;47.388;8.538;2024-03-23T07:56:24;11.70;99.90
3542;DHT22;1785;47.388;8.538;2024-03-23T07:58:50;11.30;99.90
3542;DHT22;1785;47.388;8.538;2024-03-23T08:01:16;11.10;99.90
3542;DHT22;1785;47.388;8.538;2024-03-23T08:03:43;10.70;99.90
3542;DHT22;1785;47.388;8.538;2024-03-23T08:06:11;10.40;99.90
3542;DHT22;1785;47.388;8.538;2024-03-23T08:08:38;10.40;99.90
3542;DHT22;1785;47.388;8.538;2024-03-23T08:11:05;10.10;99.90
3542;DHT22;1785;47.388;8.538;2024-03-23T08:13:31;10.20;99.90
3542;DHT22;1785;47.388;8.538;2024-03-23T08:15:57;10.30;99.90
3542;DHT22;1785;47.388;8.538;2024-03-23T08:18:24;10.00;99.90
3542;DHT22;1785;47.388;8.538;2024-03-23T08:20:56;9.90;99.90
3542;DHT22;1785;47.388;8.538;2024-03-23T08:23:23;9.90;99.90
3542;DHT22;1785;47.388;8.538;2024-03-23T08:25:49;9.90;99.90
3542;DHT22;1785;47.388;8.538;2024-03-23T08:28:15;9.60;99.90
3542;DHT22;1785;47.388;8.538;2024-03-23T08:30:41;9.50;99.90
3542;DHT22;1785;47.388;8.538;2024-03-23T08:33:07;9.60;99.90
3542;DHT22;1785;47.388;8.538;2024-03-23T08:35:33;9.50;99.90
3542;DHT22;1785;47.388;8.538;2024-03-23T08:38:00;9.40;99.90
3542;DHT22;1785;47.388;8.538;2024-03-23T08:40:26;9.50;99.90
3542;DHT22;1785;47.388;8.538;2024-03-23T08:42:52;9.60;99.90
3542;DHT22;1785;47.388;8.538;2024-03-23T08:45:19;9.40;99.90
3542;DHT22;1785;47.388;8.538;2024-03-23T08:47:45;9.50;99.90
3542;DHT22;1785;47.388;8.538;2024-03-23T08:50:11;9.60;99.90
3542;DHT22;1785;47.388;8.538;2024-03-23T08:52:37;9.80;99.90
3542;DHT22;1785;47.388;8.538;2024-03-23T08:55:03;9.70;99.90
3542;DHT22;1785;47.388;8.538;2024-03-23T08:57:30;9.50;99.90
3542;DHT22;1785;47.388;8.538;2024-03-23T08:59:56;9.30;99.90
3542;DHT22;1785;47.388;8.538;2024-03-23T09:02:22;9.20;99.90
3542;DHT22;1785;47.388;8.538;2024-03-23T09:04:48;9.40;99.90
3542;DHT22;1785;47.388;8.538;2024-03-23T09:07:14;9.40;99.90
3542;DHT22;1785;47.388;8.538;2024-03-23T09:09:40;9.50;99.90
3542;DHT22;1785;47.388;8.538;2024-03-23T09:12:06;9.50;99.90
3542;DHT22;1785;47.388;8.538;2024-03-23T09:14:33;9.50;99.90
3542;DHT22;1785;47.388;8.538;2024-03-23T09:17:00;9.30;99.90
3542;DHT22;1785;47.388;8.538;2024-03-23T09:19:27;9.20;99.90
3542;DHT22;1785;47.388;8.538;2024-03-23T09:21:54;9.40;99.90
3542;DHT22;1785;47.388;8.538;2024-03-23T09:24:20;9.50;99.90
3542;DHT22;1785;47.388;8.538;2024-03-23T09:26:46;9.50;99.90
3542;DHT22;1785;47.388;8.538;2024-03-23T09:29:12;9.70;99.90
3542;DHT22;1785;47.388;8.538;2024-03-23T09:31:39;9.60;99.90
3542;DHT22;1785;47.388;8.538;2024-03-23T09:34:06;9.60;99.90
3542;DHT22;1785;47.388;8.538;2024-03-23T09:36:32;9.50;99.90
3542;DHT22;1785;47.388;8.538;2024-03-23T09:38:58;9.60;99.90
3542;DHT22;1785;47.388;8.538;2024-03-23T09:41:24;9.60;99.90
3542;DHT22;1785;47.388;8.538;2024-03-23T09:43:52;9.60;99.90
3542;DHT22;1785;47.388;8.538;2024-03-23T09:46:19;9.50;99.90
3542;DHT22;1785;47.388;8.538;2024-03-23T09:48:47;9.70;99.90
3542;DHT22;1785;47.388;8.538;2024-03-23T09:51:13;9.90;99.90
3542;DHT22;1785;47.388;8.538;2024-03-23T09:53:39;10.10;99.90
3542;DHT22;1785;47.388;8.538;2024-03-23T09:56:07;10.10;99.90
3542;DHT22;1785;47.388;8.538;2024-03-23T09:58:34;10.20;99.90
3542;DHT22;1785;47.388;8.538;2024-03-23T10:01:00;9.80;99.90
3542;DHT22;1785;47.388;8.538;2024-03-23T10:03:26;9.80;99.90
3542;DHT22;1785;47.388;8.538;2024-03-23T10:06:01;9.70;99.90
3542;DHT22;1785;47.388;8.538;2024-03-23T10:08:29;9.60;99.90
3542;DHT22;1785;47.388;8.538;2024-03-23T10:10:55;9.70;99.90
3542;DHT22;1785;47.388;8.538;2024-03-23T10:13:25;9.50;99.90
3542;DHT22;1785;47.388;8.538;2024-03-23T10:15:55;9.40;99.90
3542;DHT22;1785;47.388;8.538;2024-03-23T10:18:22;9.30;99.90
3542;DHT22;1785;47.388;8.538;2024-03-23T10:20:52;9.50;99.90
3542;DHT22;1785;47.388;8.538;2024-03-23T10:23:19;9.50;99.90
3542;DHT22;1785;47.388;8.538;2024-03-23T10:25:45;9.70;99.90
3542;DHT22;1785;47.388;8.538;2024-03-23T10:28:11;9.90;99.90
3542;DHT22;1785;47.388;8.538;2024-03-23T10:30:37;10.10;99.90
3542;DHT22;1785;47.388;8.538;2024-03-23T10:33:09;10.10;99.90
3542;DHT22;1785;47.388;8.538;2024-03-23T10:35:36;10.00;99.90
3542;DHT22;1785;47.388;8.538;2024-03-23T10:38:04;9.80;99.90
3542;DHT22;1785;47.388;8.538;2024-03-23T10:40:34;10.00;99.90
3542;DHT22;1785;47.388;8.538;2024-03-23T10:43:00;10.00;99.90
3542;DHT22;1785;47.388;8.538;2024-03-23T10:45:26;10.00;99.90
3542;DHT22;1785;47.388;8.538;2024-03-23T10:47:52;10.00;99.90
3542;DHT22;1785;47.388;8.538;2024-03-23T10:50:18;9.90;99.90
3542;DHT22;1785;47.388;8.538;2024-03-23T10:52:47;10.30;99.90
3542;DHT22;1785;47.388;8.538;2024-03-23T10:55:17;10.10;99.90
3542;DHT22;1785;47.388;8.538;2024-03-23T10:57:48;10.30;99.90
3542;DHT22;1785;47.388;8.538;2024-03-23T11:00:16;10.30;99.90
3542;DHT22;1785;47.388;8.538;2024-03-23T11:02:42;10.30;99.90
3542;DHT22;1785;47.388;8.538;2024-03-23T11:05:29;10.40;99.90
3542;DHT22;1785;47.388;8.538;2024-03-23T11:07:55;10.50;99.90
3542;DHT22;1785;47.388;8.538;2024-03-23T11:10:25;10.50;99.90
3542;DHT22;1785;47.388;8.538;2024-03-23T11:12:53;10.60;99.90
3542;DHT22;1785;47.388;8.538;2024-03-23T11:15:19;10.80;99.90
3542;DHT22;1785;47.388;8.538;2024-03-23T11:18:03;10.80;99.90
3542;DHT22;1785;47.388;8.538;2024-03-23T11:20:33;10.80;99.90
3542;DHT22;1785;47.388;8.538;2024-03-23T11:22:59;11.00;99.90
3542;DHT22;1785;47.388;8.538;2024-03-23T11:25:27;11.00;99.90
3542;DHT22;1785;47.388;8.538;2024-03-23T11:27:55;11.00;99.90
3542;DHT22;1785;47.388;8.538;2024-03-23T11:30:23;11.00;99.90
3542;DHT22;1785;47.388;8.538;2024-03-23T11:32:51;11.00;99.90
3542;DHT22;1785;47.388;8.538;2024-03-23T11:35:31;11.30;99.90
3542;DHT22;1785;47.388;8.538;2024-03-23T11:38:05;11.50;99.90
3542;DHT22;1785;47.388;8.538;2024-03-23T11:40:32;11.30;99.90
3542;DHT22;1785;47.388;8.538;2024-03-23T11:43:00;11.30;99.90
3542;DHT22;1785;47.388;8.538;2024-03-23T11:45:27;11.10;99.90
3542;DHT22;1785;47.388;8.538;2024-03-23T11:48:06;11.20;99.90
3542;DHT22;1785;47.388;8.538;2024-03-23T11:50:32;11.20;99.90
3542;DHT22;1785;47.388;8.538;2024-03-23T11:53:14;11.20;99.90
3542;DHT22;1785;47.388;8.538;2024-03-23T11:55:46;11.20;99.90
3542;DHT22;1785;47.388;8.538;2024-03-23T11:58:13;11.10;99.90
3542;DHT22;1785;47.388;8.538;2024-03-23T12:00:39;11.10;99.90
3542;DHT22;1785;47.388;8.538;2024-03-23T12:03:05;11.00;99.90
3542;DHT22;1785;47.388;8.538;2024-03-23T12:05:32;11.00;99.90
3542;DHT22;1785;47.388;8.538;2024-03-23T12:08:18;10.90;99.80
3542;DHT22;1785;47.388;8.538;2024-03-23T12:10:46;11.00;99.90
3542;DHT22;1785;47.388;8.538;2024-03-23T12:13:16;11.10;99.90
3542;DHT22;1785;47.388;8.538;2024-03-23T12:15:43;11.30;99.90
3542;DHT22;1785;47.388;8.538;2024-03-23T12:18:10;11.60;99.90
3542;DHT22;1785;47.388;8.538;2024-03-23T12:20:36;11.60;99.40
3542;DHT22;1785;47.388;8.538;2024-03-23T12:23:07;11.20;99.90
3542;DHT22;1785;47.388;8.538;2024-03-23T12:25:34;10.90;99.90
3542;DHT22;1785;47.388;8.538;2024-03-23T12:28:01;10.40;99.90
3542;DHT22;1785;47.388;8.538;2024-03-23T12:30:28;10.30;99.90
3542;DHT22;1785;47.388;8.538;2024-03-23T12:32:54;10.10;99.90
3542;DHT22;1785;47.388;8.538;2024-03-23T12:35:20;9.80;99.90
3542;DHT22;1785;47.388;8.538;2024-03-23T12:37:46;9.70;99.90
3542;DHT22;1785;47.388;8.538;2024-03-23T12:40:12;9.60;99.90
3542;DHT22;1785;47.388;8.538;2024-03-23T12:42:38;9.50;99.90
3542;DHT22;1785;47.388;8.538;2024-03-23T12:45:05;9.70;99.90
3542;DHT22;1785;47.388;8.538;2024-03-23T12:47:32;10.10;99.90
3542;DHT22;1785;47.388;8.538;2024-03-23T12:49:58;10.30;99.90
3542;DHT22;1785;47.388;8.538;2024-03-23T12:52:24;10.30;99.90
3542;DHT22;1785;47.388;8.538;2024-03-23T12:54:54;10.40;99.90
3542;DHT22;1785;47.388;8.538;2024-03-23T12:57:22;10.50;99.90
3542;DHT22;1785;47.388;8.538;2024-03-23T12:59:48;10.60;99.90
3542;DHT22;1785;47.388;8.538;2024-03-23T13:02:17;10.50;99.90
3542;DHT22;1785;47.388;8.538;2024-03-23T13:04:45;10.60;99.90
3542;DHT22;1785;47.388;8.538;2024-03-23T13:07:11;10.70;99.90
3542;DHT22;1785;47.388;8.538;2024-03-23T13:09:38;10.70;99.90
3542;DHT22;1785;47.388;8.538;2024-03-23T13:12:04;10.70;99.90
3542;DHT22;1785;47.388;8.538;2024-03-23T13:14:31;11.20;99.90
3542;DHT22;1785;47.388;8.538;2024-03-23T13:16:56;11.70;99.90
3542;DHT22;1785;47.388;8.538;2024-03-23T13:19:23;11.90;99.90
3542;DHT22;1785;47.388;8.538;2024-03-23T13:21:53;11.50;99.90
3542;DHT22;1785;47.388;8.538;2024-03-23T13:24:22;11.40;99.90
3542;DHT22;1785;47.388;8.538;2024-03-23T13:26:47;11.60;99.90
3542;DHT22;1785;47.388;8.538;2024-03-23T13:29:14;11.90;99.90
3542;DHT22;1785;47.388;8.538;2024-03-23T13:31:39;11.90;99.90
3542;DHT22;1785;47.388;8.538;2024-03-23T13:34:05;11.90;99.90
3542;DHT22;1785;47.388;8.538;2024-03-23T13:36:31;12.20;99.90
3542;DHT22;1785;47.388;8.538;2024-03-23T13:38:58;12.50;99.90
3542;DHT22;1785;47.388;8.538;2024-03-23T13:41:25;12.20;99.90
3542;DHT22;1785;47.388;8.538;2024-03-23T13:43:51;12.00;99.90
3542;DHT22;1785;47.388;8.538;2024-03-23T13:46:17;12.10;99.90
3542;DHT22;1785;47.388;8.538;2024-03-23T13:48:43;12.20;99.90
3542;DHT22;1785;47.388;8.538;2024-03-23T13:51:09;12.20;99.90
3542;DHT22;1785;47.388;8.538;2024-03-23T13:53:35;12.50;99.90
3542;DHT22;1785;47.388;8.538;2024-03-23T13:56:02;12.40;99.90
3542;DHT22;1785;47.388;8.538;2024-03-23T13:58:28;12.40;99.90
3542;DHT22;1785;47.388;8.538;2024-03-23T14:00:56;12.40;99.90
3542;DHT22;1785;47.388;8.538;2024-03-23T14:03:23;12.30;99.90
3542;DHT22;1785;47.388;8.538;2024-03-23T14:05:49;12.10;99.90
3542;DHT22;1785;47.388;8.538;2024-03-23T14:08:15;12.20;99.90
3542;DHT22;1785;47.388;8.538;2024-03-23T14:10:42;12.00;99.90
3542;DHT22;1785;47.388;8.538;2024-03-23T14:13:09;12.00;99.90
3542;DHT22;1785;47.388;8.538;2024-03-23T14:15:35;11.70;99.90
3542;DHT22;1785;47.388;8.538;2024-03-23T14:18:02;11.60;99.90
3542;DHT22;1785;47.388;8.538;2024-03-23T14:20:28;11.50;99.90
3542;DHT22;1785;47.388;8.538;2024-03-23T14:22:55;11.60;99.90
3542;DHT22;1785;47.388;8.538;2024-03-23T14:25:21;11.60;99.90
3542;DHT22;1785;47.388;8.538;2024-03-23T14:27:52;11.50;99.90
3542;DHT22;1785;47.388;8.538;2024-03-23T14:30:19;11.50;99.90
3542;DHT22;1785;47.388;8.538;2024-03-23T14:32:45;11.50;99.90
3542;DHT22;1785;47.388;8.538;2024-03-23T14:35:11;11.80;99.90
3542;DHT22;1785;47.388;8.538;2024-03-23T14:37:37;12.00;99.90
3542;DHT22;1785;47.388;8.538;2024-03-23T14:40:04;12.20;99.90
3542;DHT22;1785;47.388;8.538;2024-03-23T14:42:30;12.20;99.90
3542;DHT22;1785;47.388;8.538;2024-03-23T14:44:56;11.90;99.70
3542;DHT22;1785;47.388;8.538;2024-03-23T14:47:23;12.00;99.70
3542;DHT22;1785;47.388;8.538;2024-03-23T14:49:49;11.90;99.10
3542;DHT22;1785;47.388;8.538;2024-03-23T14:52:16;11.80;98.80
3542;DHT22;1785;47.388;8.538;2024-03-23T14:54:44;11.70;98.30
3542;DHT22;1785;47.388;8.538;2024-03-23T14:57:10;11.50;98.40
3542;DHT22;1785;47.388;8.538;2024-03-23T14:59:36;11.60;98.40
3542;DHT22;1785;47.388;8.538;2024-03-23T15:02:04;11.70;98.60
3542;DHT22;1785;47.388;8.538;2024-03-23T15:04:30;12.20;98.10
3542;DHT22;1785;47.388;8.538;2024-03-23T15:06:56;12.50;97.60
3542;DHT22;1785;47.388;8.538;2024-03-23T15:09:22;12.60;97.10
3542;DHT22;1785;47.388;8.538;2024-03-23T15:11:48;12.70;96.60
3542;DHT22;1785;47.388;8.538;2024-03-23T15:14:14;13.00;96.50
3542;DHT22;1785;47.388;8.538;2024-03-23T15:16:40;12.90;96.20
3542;DHT22;1785;47.388;8.538;2024-03-23T15:19:08;13.20;95.60
3542;DHT22;1785;47.388;8.538;2024-03-23T15:21:34;13.20;95.30
3542;DHT22;1785;47.388;8.538;2024-03-23T15:24:01;13.00;94.80
3542;DHT22;1785;47.388;8.538;2024-03-23T15:26:27;12.50;94.50
3542;DHT22;1785;47.388;8.538;2024-03-23T15:28:53;12.30;95.40
3542;DHT22;1785;47.388;8.538;2024-03-23T15:31:35;12.60;94.90
3542;DHT22;1785;47.388;8.538;2024-03-23T15:34:01;12.40;94.90
3542;DHT22;1785;47.388;8.538;2024-03-23T15:36:27;12.50;94.80
3542;DHT22;1785;47.388;8.538;2024-03-23T15:38:54;12.40;94.90
3542;DHT22;1785;47.388;8.538;2024-03-23T15:41:21;12.70;95.00
3542;DHT22;1785;47.388;8.538;2024-03-23T15:43:49;12.80;95.00
3542;DHT22;1785;47.388;8.538;2024-03-23T15:46:15;12.50;94.30
3542;DHT22;1785;47.388;8.538;2024-03-23T15:48:41;12.20;93.70
3542;DHT22;1785;47.388;8.538;2024-03-23T15:51:12;11.90;93.00
3542;DHT22;1785;47.388;8.538;2024-03-23T15:53:38;12.00;93.70
3542;DHT22;1785;47.388;8.538;2024-03-23T15:56:05;11.80;93.80
3542;DHT22;1785;47.388;8.538;2024-03-23T15:58:32;11.80;93.60
3542;DHT22;1785;47.388;8.538;2024-03-23T16:01:01;12.10;93.80
3542;DHT22;1785;47.388;8.538;2024-03-23T16:03:28;12.10;92.50
3542;DHT22;1785;47.388;8.538;2024-03-23T16:05:55;12.00;91.90
3542;DHT22;1785;47.388;8.538;2024-03-23T16:08:23;12.00;91.90
3542;DHT22;1785;47.388;8.538;2024-03-23T16:10:49;12.00;92.10
3542;DHT22;1785;47.388;8.538;2024-03-23T16:13:16;12.20;92.30
3542;DHT22;1785;47.388;8.538;2024-03-23T16:15:43;12.10;92.20
3542;DHT22;1785;47.388;8.538;2024-03-23T16:18:09;12.00;92.30
3542;DHT22;1785;47.388;8.538;2024-03-23T16:20:36;11.90;92.40
3542;DHT22;1785;47.388;8.538;2024-03-23T16:23:02;11.90;92.80
3542;DHT22;1785;47.388;8.538;2024-03-23T16:25:29;12.00;92.50
3542;DHT22;1785;47.388;8.538;2024-03-23T16:27:55;12.10;92.70
3542;DHT22;1785;47.388;8.538;2024-03-23T16:30:22;12.30;92.30
3542;DHT22;1785;47.388;8.538;2024-03-23T16:32:48;12.00;91.50
3542;DHT22;1785;47.388;8.538;2024-03-23T16:35:15;12.00;91.60
3542;DHT22;1785;47.388;8.538;2024-03-23T16:37:41;12.00;90.70
3542;DHT22;1785;47.388;8.538;2024-03-23T16:40:08;11.90;90.70
3542;DHT22;1785;47.388;8.538;2024-03-23T16:42:35;11.80;90.80
3542;DHT22;1785;47.388;8.538;2024-03-23T16:45:01;11.60;90.60
3542;DHT22;1785;47.388;8.538;2024-03-23T16:47:27;11.40;92.20
3542;DHT22;1785;47.388;8.538;2024-03-23T16:49:53;11.30;93.20
3542;DHT22;1785;47.388;8.538;2024-03-23T16:52:20;11.20;93.70
3542;DHT22;1785;47.388;8.538;2024-03-23T16:54:47;11.10;94.10